ADDS TAF Board (Experimental) INFO Settings
IDs: Format: Expanded Condensed

KDEN - Denver Intl, CO, US

Issued at 1728 UTC 24 Aug 2016
Updated at 1754 UTC 24 Aug 2016
Time1653Z 24/18Z 24/19Z 24/20Z 24/21Z 24/22Z 24/23Z 25/00Z 25/01Z 25/02Z 25/03Z 25/04Z 25/05Z 25/06Z
Type OBS PRVL PRVL PRVL PRVL PRVL PRVL PRVL PRVL PRVL PRVL PRVL PRVL PRVL
VIS 10 >6 >6 >6 >6 >6 >6 >6 >6 >6 >6 >6 >6 >6
CIG 95 80 80 80 80 60 60 60 60 120 120 120 120 120
Cover BKN OVC OVC OVC OVC BKN BKN BKN BKN BKN BKN BKN BKN BKN
FltCat VFR VFR VFR VFR VFR VFR VFR VFR VFR VFR VFR VFR VFR VFR
WX -- VCSH VCSH VCSH VCSH -SHRA -SHRA -SHRA -SHRA -- -- -- -- --
WDir 150 200 200 200 200 150 150 150 150 170 170 170 170 170
WSpd 9 10 10 10 10 15 15 15 15 12 12 12 12 12
WGst -- -- -- -- -- 25 25 25 25 -- -- -- -- --
R07/25
XWnd -8 -9 -9 -9 -9 -13 -13 -13 -13 -12 -12 -12 -12 -12
XGst -- -- -- -- -- -22 -22 -22 -22 -- -- -- -- --
HWnd 5 -3 -3 -3 -3 8 8 8 8 2 2 2 2 2
HGst -- -- -- -- -- 13 13 13 13 -- -- -- -- --
R08/26
XWnd -8 -9 -9 -9 -9 -13 -13 -13 -13 -12 -12 -12 -12 -12
XGst -- -- -- -- -- -21 -21 -21 -21 -- -- -- -- --
HWnd 5 -3 -3 -3 -3 8 8 8 8 2 2 2 2 2
HGst -- -- -- -- -- 13 13 13 13 -- -- -- -- --
R16/34
XWnd 5 -3 -3 -3 -3 8 8 8 8 2 2 2 2 2
XGst -- -- -- -- -- 13 13 13 13 -- -- -- -- --
HWnd 8 9 9 9 9 13 13 13 13 12 12 12 12 12
HGst -- -- -- -- -- 21 21 21 21 -- -- -- -- --
R17/35
XWnd 5 -3 -3 -3 -3 8 8 8 8 2 2 2 2 2
XGst -- -- -- -- -- 13 13 13 13 -- -- -- -- --
HWnd 8 9 9 9 9 13 13 13 13 12 12 12 12 12
HGst -- -- -- -- -- 21 21 21 21 -- -- -- -- --

Raw TAF
KDEN 241728Z 2418/2524 20010KT P6SM VCSH SCT060 BKN080 OVC120
  FM242200 15015G25KT P6SM -SHRA BKN060
  FM250200 17012KT P6SM SCT080 BKN120
  FM250900 20009KT P6SM SCT120
  FM251500 VRB05KT P6SM FEW120 SCT200
  FM251800 15010KT P6SM FEW100 SCT180
  FM252300 17012KT P6SM VCTS SCT080 BKN120CB


Raw METAR
KDEN 241653Z 15009KT 10SM SCT080 BKN095 BKN110 19/07 A3026 RMK AO2 SLP177 T01890072
KDEN 241553Z 15015KT 10SM SCT060 BKN075 OVC110 19/06 A3026 RMK AO2 SLP174 SHRA VC W T01940061
KDEN 241453Z 13008KT 10SM SCT060 BKN080 OVC110 19/05 A3023 RMK AO2 SLP163 T01940050 53020

METAR Board
Radar Display
Forecast Discussion

TAF Board Legend

Potential Impact
Threat None Slight Moderate High
Visibility (sm) ≥5.1 5.1>X≥3 3>X≥1 <1
Ceiling (100 ft) ≥30.1 30.1>X≥10 10>X≥5 <5
Wind Speed (kt) <10 10≤X<20 20≤X<30 ≥30
Wind Gust (kt) <15 15≤X<25 25≤X<35 ≥35
Weather No Wx Reported VCTS,-TS,-FZRA,SN TS,FZRA +TS,+FZRA,+SN